createdAt,value
2022-09-02T00:00:31.442Z,19.40
2022-09-02T00:04:32.467Z,19.60
2022-09-02T00:08:33.996Z,19.60
2022-09-02T00:12:35.189Z,19.30
2022-09-02T00:16:37.468Z,19.60
2022-09-02T00:20:40.195Z,19.40
2022-09-02T00:24:41.196Z,19.10
2022-09-02T00:28:48.855Z,18.90
2022-09-02T00:32:45.660Z,18.80
2022-09-02T00:36:48.686Z,18.30
2022-09-02T00:40:50.107Z,18.50
2022-09-02T00:44:52.121Z,18.40
2022-09-02T00:48:57.088Z,18.30
2022-09-02T00:53:01.934Z,18.20
2022-09-02T00:57:06.865Z,18.00
2022-09-02T01:01:10.869Z,18.10
2022-09-02T01:05:15.093Z,17.90
2022-09-02T01:09:16.640Z,18.00
2022-09-02T01:13:21.031Z,17.10
2022-09-02T01:17:25.549Z,17.80
2022-09-02T01:21:26.869Z,18.00
2022-09-02T01:25:31.735Z,18.30
2022-09-02T01:29:32.756Z,18.10
2022-09-02T01:33:36.316Z,18.40
2022-09-02T01:37:38.834Z,18.40
2022-09-02T01:41:41.842Z,18.60
2022-09-02T01:45:47.441Z,18.30
2022-09-02T01:49:49.491Z,18.30
2022-09-02T01:53:50.656Z,18.20
2022-09-02T01:57:51.861Z,18.30
2022-09-02T02:01:53.016Z,18.30
2022-09-02T02:05:54.896Z,18.40
2022-09-02T02:09:56.124Z,18.40
2022-09-02T02:13:57.380Z,18.50
2022-09-02T02:17:58.476Z,18.20
2022-09-02T02:22:00.092Z,17.30
2022-09-02T02:26:01.110Z,17.80
2022-09-02T02:30:02.121Z,18.60
2022-09-02T02:34:03.856Z,17.90
2022-09-02T02:38:04.957Z,18.00
2022-09-02T02:42:07.320Z,18.70
2022-09-02T02:46:08.529Z,18.80
2022-09-02T02:50:12.482Z,18.50
2022-09-02T02:54:13.817Z,18.40
2022-09-02T02:58:16.633Z,18.70
2022-09-02T03:02:17.887Z,18.40
2022-09-02T03:06:19.509Z,18.40
2022-09-02T03:10:23.082Z,18.00
2022-09-02T03:14:24.200Z,18.40
2022-09-02T03:18:25.193Z,17.80
2022-09-02T03:22:27.131Z,18.40
2022-09-02T03:26:28.656Z,18.40
2022-09-02T03:30:31.219Z,17.50
2022-09-02T03:34:32.648Z,18.40
2022-09-02T03:38:35.495Z,18.60
2022-09-02T03:42:37.118Z,18.60
2022-09-02T03:46:39.589Z,18.80
2022-09-02T03:50:43.686Z,18.80
2022-09-02T03:54:45.247Z,18.70
2022-09-02T03:58:49.086Z,18.50
2022-09-02T04:02:51.635Z,18.40
2022-09-02T04:06:52.823Z,18.40
2022-09-02T04:10:57.430Z,18.60
2022-09-02T04:14:58.546Z,18.40
2022-09-02T04:24:05.089Z,18.00
2022-09-02T04:28:06.118Z,18.30
2022-09-02T04:32:07.132Z,18.50
2022-09-02T04:36:12.795Z,18.40
2022-09-02T04:40:14.335Z,18.40
2022-09-02T04:44:15.403Z,18.40
2022-09-02T04:48:18.228Z,18.40
2022-09-02T04:52:20.217Z,17.90
2022-09-02T04:56:26.926Z,18.40
2022-09-02T05:00:27.943Z,18.40
2022-09-02T05:04:30.162Z,18.50
2022-09-02T05:08:31.402Z,18.40
2022-09-02T05:12:33.835Z,18.60
2022-09-02T05:16:37.583Z,18.70
2022-09-02T05:20:39.604Z,18.70
2022-09-02T05:24:42.063Z,18.80
2022-09-02T05:32:49.723Z,19.00
2022-09-02T05:36:50.806Z,18.90
2022-09-02T05:40:51.726Z,18.50
2022-09-02T05:44:52.888Z,19.20
2022-09-02T05:49:12.590Z,19.40
2022-09-02T05:53:14.415Z,19.50
2022-09-02T05:57:16.998Z,19.50
2022-09-02T06:01:19.279Z,19.80
2022-09-02T06:05:20.211Z,19.90
2022-09-02T06:09:23.328Z,20.40
2022-09-02T06:13:25.035Z,20.60
2022-09-02T06:17:26.786Z,20.90
2022-09-02T06:21:27.661Z,21.00
2022-09-02T06:25:28.554Z,21.10
2022-09-02T06:29:29.532Z,21.10
2022-09-02T06:33:30.511Z,21.50
2022-09-02T06:37:31.565Z,21.90
2022-09-02T06:41:33.940Z,22.60
2022-09-02T06:45:40.479Z,22.80
2022-09-02T06:49:41.919Z,23.10
2022-09-02T06:53:42.828Z,23.60
2022-09-02T06:57:43.759Z,23.70
2022-09-02T07:01:46.021Z,22.70
2022-09-02T07:05:49.412Z,20.60
2022-09-02T07:09:50.625Z,18.90
2022-09-02T07:13:51.675Z,19.30
2022-09-02T07:17:59.035Z,21.10
2022-09-02T07:22:00.122Z,20.40
2022-09-02T07:26:01.746Z,21.00
2022-09-02T07:30:04.468Z,22.90
2022-09-02T07:34:06.625Z,24.00
2022-09-02T07:38:11.705Z,21.80
2022-09-02T07:42:12.696Z,20.90
2022-09-02T07:46:14.097Z,22.40
2022-09-02T07:50:18.820Z,22.90
2022-09-02T07:54:21.883Z,21.60
2022-09-02T07:58:22.995Z,23.00
2022-09-02T08:02:26.897Z,21.90
2022-09-02T08:06:34.573Z,22.70
2022-09-02T08:10:35.807Z,22.60
2022-09-02T08:14:36.818Z,23.60
2022-09-02T08:18:38.043Z,22.00
2022-09-02T08:22:39.992Z,23.60
2022-09-02T08:26:41.154Z,22.60
2022-09-02T08:30:42.307Z,21.70
2022-09-02T08:34:43.310Z,23.60
2022-09-02T08:38:44.462Z,23.70
2022-09-02T08:42:51.595Z,23.40
2022-09-02T08:46:54.770Z,23.00
2022-09-02T08:50:59.604Z,24.10
2022-09-02T08:55:01.934Z,23.40
2022-09-02T08:59:03.633Z,24.00
2022-09-02T09:03:08.620Z,23.00
2022-09-02T09:07:15.997Z,24.30
2022-09-02T09:11:26.893Z,24.40
2022-09-02T09:15:32.351Z,23.80
2022-09-02T09:19:46.257Z,24.50
2022-09-02T09:23:48.505Z,25.30
2022-09-02T09:27:49.657Z,22.60
2022-09-02T09:31:54.576Z,23.40
2022-09-02T09:35:56.430Z,23.80
2022-09-02T09:39:57.681Z,24.10
2022-09-02T09:44:00.558Z,24.20
2022-09-02T09:48:18.402Z,24.30
2022-09-02T09:52:27.996Z,24.10
2022-09-02T09:56:32.054Z,25.00
2022-09-02T10:00:35.118Z,25.10
2022-09-02T10:04:44.184Z,25.10
2022-09-02T10:08:43.054Z,25.00
2022-09-02T10:12:46.374Z,25.70
2022-09-02T10:17:18.401Z,26.20
2022-09-02T10:21:25.907Z,25.30
2022-09-02T10:25:42.857Z,24.30
2022-09-02T10:30:05.974Z,24.80
2022-09-02T10:34:27.445Z,24.50
2022-09-02T10:38:43.374Z,25.60
2022-09-02T10:43:00.211Z,25.20
2022-09-02T10:47:14.096Z,25.80
2022-09-02T10:51:39.851Z,25.40
2022-09-02T10:55:57.832Z,25.40
2022-09-02T11:00:08.942Z,24.90
2022-09-02T11:04:33.294Z,25.30
2022-09-02T11:08:47.234Z,25.70
2022-09-02T11:13:06.611Z,26.40
2022-09-02T11:17:29.753Z,25.80
2022-09-02T11:21:40.406Z,26.50
2022-09-02T11:25:51.163Z,27.40
2022-09-02T11:29:58.786Z,26.10
2022-09-02T11:34:21.782Z,26.50
2022-09-02T11:38:29.922Z,26.80
2022-09-02T11:43:05.277Z,24.60
2022-09-02T11:47:10.382Z,25.80
2022-09-02T11:51:35.342Z,24.80
2022-09-02T11:55:52.318Z,23.80
2022-09-02T11:59:57.480Z,25.10
2022-09-02T12:08:14.871Z,24.30
2022-09-02T12:12:40.792Z,24.40
2022-09-02T12:16:44.685Z,25.60
2022-09-02T12:20:51.450Z,26.10
2022-09-02T12:24:55.813Z,26.20
2022-09-02T12:29:22.258Z,27.30
2022-09-02T12:33:32.257Z,28.10
2022-09-02T12:37:56.791Z,27.80
2022-09-02T12:42:12.232Z,30.00
2022-09-02T12:46:33.686Z,29.70
2022-09-02T12:50:55.694Z,31.00
2022-09-02T12:54:59.303Z,32.40
2022-09-02T12:59:02.847Z,31.50
2022-09-02T13:03:13.293Z,28.60
2022-09-02T13:07:29.695Z,28.80
2022-09-02T13:11:43.884Z,27.10
2022-09-02T13:16:15.573Z,27.50
2022-09-02T13:20:44.258Z,26.40
2022-09-02T13:24:55.226Z,27.40
2022-09-02T13:29:06.510Z,25.80
2022-09-02T13:33:12.855Z,27.60
2022-09-02T13:37:36.531Z,28.10
2022-09-02T13:41:37.920Z,27.60
2022-09-02T13:45:41.196Z,29.20
2022-09-02T13:49:44.998Z,28.10
2022-09-02T13:54:18.806Z,29.40
2022-09-02T13:58:10.190Z,29.80
2022-09-02T14:02:21.543Z,29.70
2022-09-02T14:06:26.776Z,29.00
2022-09-02T14:10:29.151Z,26.60
2022-09-02T14:14:30.970Z,28.50
2022-09-02T14:18:32.544Z,28.30
2022-09-02T14:22:35.221Z,27.50
2022-09-02T14:26:39.454Z,28.40
2022-09-02T14:30:41.110Z,28.70
2022-09-02T14:34:44.760Z,28.10
2022-09-02T14:38:49.881Z,30.90
2022-09-02T14:42:57.600Z,29.40
2022-09-02T14:46:59.035Z,29.50
2022-09-02T14:51:03.568Z,29.30
2022-09-02T14:55:05.909Z,29.30
2022-09-02T14:59:06.922Z,28.50
2022-09-02T15:03:07.870Z,29.20
2022-09-02T15:07:08.955Z,27.10
2022-09-02T15:11:10.148Z,27.60
2022-09-02T15:15:11.215Z,27.60
2022-09-02T15:19:12.381Z,28.40
2022-09-02T15:23:15.018Z,28.50
2022-09-02T15:27:17.250Z,27.70
2022-09-02T15:31:19.457Z,26.80
2022-09-02T15:35:23.512Z,26.70
2022-09-02T15:39:25.570Z,27.50
2022-09-02T15:43:26.645Z,28.10
2022-09-02T15:47:30.068Z,26.10
2022-09-02T15:51:32.358Z,26.20
2022-09-02T15:55:34.064Z,26.30
2022-09-02T15:59:35.099Z,25.30
2022-09-02T16:03:36.702Z,25.70
2022-09-02T16:07:39.654Z,25.80
2022-09-02T16:11:43.695Z,26.00
2022-09-02T16:15:44.715Z,26.80
2022-09-02T16:19:45.785Z,25.70
2022-09-02T16:23:47.035Z,25.90
2022-09-02T16:27:55.203Z,26.60
2022-09-02T16:35:59.761Z,25.50
2022-09-02T16:40:01.939Z,26.50
2022-09-02T16:44:09.150Z,24.30
2022-09-02T16:48:10.258Z,25.10
2022-09-02T16:52:11.996Z,24.70
2022-09-02T16:56:14.565Z,24.50
2022-09-02T17:00:16.528Z,25.10
2022-09-02T17:04:17.816Z,24.80
2022-09-02T17:08:19.162Z,25.10
2022-09-02T17:12:20.089Z,24.30
2022-09-02T17:16:24.450Z,24.60
2022-09-02T17:20:25.515Z,25.40
2022-09-02T17:24:27.467Z,24.40
2022-09-02T17:28:28.513Z,25.00
2022-09-02T17:32:29.608Z,24.60
2022-09-02T17:36:32.639Z,24.00
2022-09-02T17:40:52.493Z,24.70
2022-09-02T17:44:53.605Z,24.00
2022-09-02T17:49:15.954Z,24.20
2022-09-02T17:52:59.667Z,24.50
2022-09-02T17:57:23.019Z,23.40
2022-09-02T18:01:26.976Z,23.60
2022-09-02T18:05:51.595Z,23.80
2022-09-02T18:09:53.901Z,23.30
2022-09-02T18:14:20.714Z,23.90
2022-09-02T18:18:23.051Z,23.40
2022-09-02T18:22:48.019Z,23.50
2022-09-02T18:27:11.211Z,23.20
2022-09-02T18:31:33.211Z,23.20
2022-09-02T18:35:55.622Z,22.90
2022-09-02T18:40:09.932Z,22.80
2022-09-02T18:44:32.952Z,23.10
2022-09-02T18:48:38.489Z,22.80
2022-09-02T18:52:41.279Z,22.80
2022-09-02T18:56:46.152Z,22.10
2022-09-02T19:00:51.120Z,22.30
2022-09-02T19:04:53.112Z,21.40
2022-09-02T19:09:00.654Z,21.10
2022-09-02T19:13:01.834Z,21.70
2022-09-02T19:17:02.855Z,21.90
2022-09-02T19:21:04.476Z,22.00
2022-09-02T19:25:12.367Z,21.60
2022-09-02T19:29:15.395Z,21.70
2022-09-02T19:33:16.860Z,21.80
2022-09-02T19:37:18.255Z,21.80
2022-09-02T19:41:19.292Z,21.80
2022-09-02T19:45:21.766Z,21.50
2022-09-02T19:49:25.336Z,21.30
2022-09-02T19:53:29.156Z,21.40
2022-09-02T19:57:30.172Z,21.70
2022-09-02T20:01:31.312Z,20.80
2022-09-02T20:05:32.938Z,20.90
2022-09-02T20:09:34.034Z,21.20
2022-09-02T20:13:40.714Z,20.90
2022-09-02T20:17:38.964Z,21.40
2022-09-02T20:22:04.774Z,21.20
2022-09-02T20:26:28.995Z,21.00
2022-09-02T20:30:33.980Z,21.10
2022-09-02T20:34:51.243Z,21.30
2022-09-02T20:38:59.182Z,20.90
2022-09-02T20:43:10.088Z,20.80
2022-09-02T20:47:19.556Z,20.30
2022-09-02T20:51:29.295Z,19.90
2022-09-02T20:55:49.747Z,20.10
2022-09-02T21:00:10.666Z,19.90
2022-09-02T21:04:21.905Z,20.40
2022-09-02T21:08:36.520Z,20.50
2022-09-02T21:12:56.000Z,20.60
2022-09-02T21:17:05.471Z,19.90
2022-09-02T21:21:17.983Z,20.10
2022-09-02T21:25:36.042Z,20.20
2022-09-02T21:29:43.580Z,20.20
2022-09-02T21:33:45.621Z,19.70
2022-09-02T21:37:50.434Z,20.50
2022-09-02T21:42:04.800Z,20.80
2022-09-02T21:46:27.887Z,20.80
2022-09-02T21:51:01.804Z,20.20
2022-09-02T21:55:26.312Z,21.20
2022-09-02T21:59:33.940Z,21.30
2022-09-02T22:03:56.737Z,21.30
2022-09-02T22:08:16.849Z,20.70
2022-09-02T22:12:18.342Z,20.20
2022-09-02T22:16:30.984Z,20.00
2022-09-02T22:20:36.460Z,19.60
2022-09-02T22:24:39.391Z,19.00
2022-09-02T22:28:44.948Z,20.00
2022-09-02T22:32:56.380Z,20.00
2022-09-02T22:37:01.237Z,20.10
2022-09-02T22:41:17.392Z,19.70
2022-09-02T22:45:49.382Z,19.60
2022-09-02T22:50:12.550Z,19.50
2022-09-02T22:54:13.630Z,19.60
2022-09-02T22:58:38.443Z,19.40
2022-09-02T23:06:54.660Z,18.90
2022-09-02T23:11:04.382Z,17.90
2022-09-02T23:15:15.671Z,19.00
2022-09-02T23:19:52.370Z,19.00
2022-09-02T23:24:12.587Z,19.00
2022-09-02T23:28:18.665Z,18.90
2022-09-02T23:32:39.989Z,18.70
2022-09-02T23:37:04.743Z,18.50
2022-09-02T23:41:11.933Z,18.20
2022-09-02T23:45:22.354Z,18.20
2022-09-02T23:49:42.380Z,18.00
2022-09-02T23:54:01.221Z,16.80
2022-09-02T23:58:08.829Z,17.80
